createdAt,value
2019-02-28T08:31:13.071Z,99.50
2019-02-28T08:33:41.790Z,99.50
2019-02-28T08:36:12.552Z,98.50
2019-02-28T08:38:40.970Z,98.50
2019-02-28T08:41:09.585Z,98.40
2019-02-28T08:43:38.279Z,98.30
2019-02-28T08:46:10.750Z,97.10
2019-02-28T08:48:37.234Z,97.50
2019-02-28T08:51:05.955Z,97.30
2019-02-28T08:53:34.565Z,97.60
2019-02-28T08:56:03.327Z,96.90
2019-02-28T08:58:31.936Z,97.00
2019-02-28T09:01:00.766Z,96.70
2019-02-28T09:03:29.449Z,96.70
2019-02-28T09:06:00.957Z,96.90
2019-02-28T09:08:28.463Z,97.40
2019-02-28T09:10:57.250Z,97.20
2019-02-28T09:13:25.932Z,97.20
2019-02-28T09:15:54.815Z,98.40
2019-02-28T09:18:23.563Z,98.20
2019-02-28T09:20:52.436Z,98.90
2019-02-28T09:23:21.146Z,97.70
2019-02-28T09:25:50.012Z,96.60
2019-02-28T09:28:18.742Z,95.30
2019-02-28T09:30:56.300Z,94.40
2019-02-28T09:33:25.002Z,94.60
2019-02-28T09:35:53.674Z,94.80
2019-02-28T09:38:22.372Z,94.80
2019-02-28T09:40:51.126Z,94.60
2019-02-28T09:43:19.982Z,93.20
2019-02-28T09:45:48.770Z,93.50
2019-02-28T09:48:17.504Z,93.50
2019-02-28T09:50:46.232Z,92.80
2019-02-28T09:53:16.579Z,93.40
2019-02-28T09:55:45.156Z,92.60
2019-02-28T09:58:13.814Z,92.30
2019-02-28T10:00:43.229Z,91.30
2019-02-28T10:03:15.512Z,91.10
2019-02-28T10:05:43.294Z,91.00
2019-02-28T10:08:12.117Z,91.70
2019-02-28T10:10:40.852Z,92.00
2019-02-28T10:13:09.572Z,92.20
2019-02-28T10:15:38.743Z,92.80
2019-02-28T10:18:08.629Z,93.80
2019-02-28T10:20:39.036Z,93.30
2019-02-28T10:23:07.809Z,92.40
2019-02-28T10:25:40.122Z,92.40
2019-02-28T10:28:07.157Z,93.10
2019-02-28T10:30:36.082Z,92.80
2019-02-28T10:33:04.892Z,92.50
2019-02-28T10:35:36.657Z,92.70
2019-02-28T10:38:03.894Z,92.50
2019-02-28T10:40:32.639Z,93.00
2019-02-28T10:43:01.383Z,93.30
2019-02-28T10:45:30.291Z,93.50
2019-02-28T10:48:02.942Z,92.40
2019-02-28T10:50:37.819Z,91.60
2019-02-28T10:53:06.583Z,91.00
2019-02-28T10:55:35.434Z,90.30
2019-02-28T10:58:04.385Z,90.50
2019-02-28T11:00:42.242Z,90.80
2019-02-28T11:03:11.100Z,90.80
2019-02-28T11:05:44.566Z,90.90
2019-02-28T11:08:18.319Z,90.00
2019-02-28T11:10:46.759Z,91.50
2019-02-28T11:13:20.962Z,91.60
2019-02-28T11:15:50.587Z,91.50
2019-02-28T11:18:19.411Z,91.30
2019-02-28T11:20:48.216Z,91.40
2019-02-28T11:23:17.761Z,91.10
2019-02-28T11:25:46.548Z,91.30
2019-02-28T11:28:15.814Z,92.40
2019-02-28T11:30:46.532Z,93.30
2019-02-28T11:33:16.435Z,93.10
2019-02-28T11:35:45.432Z,94.20
2019-02-28T11:38:14.426Z,94.40
2019-02-28T11:40:44.846Z,94.80
2019-02-28T11:43:13.833Z,94.90
2019-02-28T11:45:45.076Z,96.00
2019-02-28T11:48:19.352Z,95.90
2019-02-28T11:50:46.468Z,96.20
2019-02-28T11:53:15.317Z,96.10
2019-02-28T11:55:44.040Z,95.60
2019-02-28T11:58:16.595Z,95.60
2019-02-28T12:00:43.071Z,95.40
2019-02-28T12:03:11.913Z,96.00
2019-02-28T12:05:40.523Z,95.90
2019-02-28T12:08:10.525Z,96.00
2019-02-28T12:10:39.607Z,96.20
2019-02-28T12:13:08.293Z,95.80
2019-02-28T12:15:39.246Z,95.50
2019-02-28T12:18:08.187Z,95.00
2019-02-28T12:20:37.003Z,95.10
2019-02-28T12:23:05.881Z,95.00
2019-02-28T12:25:34.672Z,94.50
2019-02-28T12:28:06.276Z,94.40
2019-02-28T12:30:35.260Z,94.30
2019-02-28T12:33:04.254Z,94.20
2019-02-28T12:35:37.497Z,94.20
2019-02-28T12:38:03.766Z,93.50
2019-02-28T12:40:34.553Z,94.30
2019-02-28T12:43:08.605Z,93.80
2019-02-28T12:45:39.563Z,93.20
2019-02-28T12:48:08.396Z,92.30
2019-02-28T12:50:37.339Z,93.20
2019-02-28T12:53:06.176Z,92.90
2019-02-28T12:55:35.632Z,92.80
2019-02-28T12:58:05.536Z,92.80
2019-02-28T13:00:45.591Z,92.80
2019-02-28T13:03:19.220Z,91.10
2019-02-28T13:05:48.010Z,92.10
2019-02-28T13:08:14.979Z,91.90
2019-02-28T13:10:43.701Z,93.00
2019-02-28T13:13:12.381Z,92.20
2019-02-28T13:15:41.216Z,91.80
2019-02-28T13:18:10.041Z,92.50
2019-02-28T13:20:39.811Z,91.50
2019-02-28T13:23:08.585Z,91.60
2019-02-28T13:25:37.350Z,93.10
2019-02-28T13:28:07.679Z,93.00
2019-02-28T13:30:39.649Z,92.60
2019-02-28T13:33:06.748Z,92.60
2019-02-28T13:35:45.166Z,92.80
2019-02-28T13:38:17.440Z,92.40
2019-02-28T13:40:44.706Z,93.20
2019-02-28T13:43:20.026Z,92.50
2019-02-28T13:45:41.965Z,93.00
2019-02-28T13:48:10.840Z,93.40
2019-02-28T13:50:39.517Z,93.10
2019-02-28T13:53:17.469Z,93.90
2019-02-28T13:55:39.597Z,92.70
2019-02-28T13:58:08.449Z,93.80
2019-02-28T14:00:43.619Z,94.00
2019-02-28T14:03:17.049Z,93.60
2019-02-28T14:05:45.501Z,93.30
2019-02-28T14:08:14.161Z,93.00
2019-02-28T14:10:43.021Z,93.30
2019-02-28T14:13:11.733Z,93.60
2019-02-28T14:15:42.734Z,94.20
2019-02-28T14:18:11.933Z,94.00
2019-02-28T14:20:40.660Z,93.70
2019-02-28T14:23:09.652Z,94.10
2019-02-28T14:25:39.711Z,94.60
2019-02-28T14:28:08.865Z,94.20
2019-02-28T14:30:37.619Z,94.80
2019-02-28T14:33:06.633Z,94.50
2019-02-28T14:35:38.283Z,94.20
2019-02-28T14:38:06.215Z,94.50
2019-02-28T14:40:35.067Z,94.30
2019-02-28T14:43:03.783Z,94.40
2019-02-28T14:45:39.079Z,94.50
2019-02-28T14:48:09.327Z,95.10
2019-02-28T14:50:38.180Z,95.60
2019-02-28T14:53:06.967Z,95.80
2019-02-28T14:55:37.393Z,96.10
2019-02-28T14:58:06.044Z,95.70
2019-02-28T15:00:35.619Z,95.80
2019-02-28T15:03:04.660Z,96.10
2019-02-28T15:05:41.418Z,96.40
2019-02-28T15:08:11.848Z,97.20
2019-02-28T15:10:41.091Z,97.90
2019-02-28T15:13:09.829Z,98.80
2019-02-28T15:15:38.502Z,99.60
2019-02-28T15:18:11.112Z,99.90
2019-02-28T15:20:37.550Z,99.90
2019-02-28T15:23:06.220Z,99.90
2019-02-28T15:25:34.867Z,99.90
2019-02-28T15:28:03.704Z,99.90
2019-02-28T15:30:37.706Z,99.90
2019-02-28T15:33:06.469Z,99.90
2019-02-28T15:35:35.254Z,99.90
2019-02-28T15:38:05.756Z,99.90
2019-02-28T15:40:37.130Z,99.90
2019-02-28T15:43:05.884Z,99.90
2019-02-28T15:45:36.249Z,99.90
2019-02-28T15:48:05.412Z,99.90
2019-02-28T15:50:34.201Z,99.90
2019-02-28T15:53:02.903Z,99.90
2019-02-28T15:55:35.106Z,99.90
2019-02-28T15:58:02.647Z,99.90
2019-02-28T16:00:34.016Z,99.90
2019-02-28T16:03:02.713Z,99.90
2019-02-28T16:05:31.440Z,99.90
2019-02-28T16:08:00.134Z,99.90
2019-02-28T16:10:33.690Z,99.90
2019-02-28T16:13:02.529Z,99.90
2019-02-28T16:15:31.279Z,99.90
2019-02-28T16:17:59.969Z,99.90
2019-02-28T16:20:31.877Z,99.90
2019-02-28T16:22:59.201Z,99.90
2019-02-28T16:25:36.512Z,99.90
2019-02-28T16:28:09.401Z,99.90
2019-02-28T16:30:39.486Z,99.90
2019-02-28T16:33:08.310Z,99.90
2019-02-28T16:35:37.044Z,99.90
2019-02-28T16:38:06.431Z,99.90
2019-02-28T16:40:36.124Z,99.90
2019-02-28T16:43:04.943Z,99.90
2019-02-28T16:45:40.951Z,99.90
2019-02-28T16:48:08.517Z,99.90
2019-02-28T16:50:37.235Z,99.90
2019-02-28T16:53:05.974Z,99.90
2019-02-28T16:55:34.825Z,99.90
2019-02-28T16:58:03.579Z,99.90
2019-02-28T17:00:32.305Z,99.90
2019-02-28T17:03:03.966Z,99.90
2019-02-28T17:05:31.568Z,99.90
2019-02-28T17:08:00.217Z,99.90
2019-02-28T17:10:36.418Z,99.90
2019-02-28T17:13:19.429Z,99.90
2019-02-28T17:16:01.223Z,99.90
2019-02-28T17:18:30.281Z,99.90
2019-02-28T17:20:59.019Z,99.90
2019-02-28T17:23:27.647Z,99.90
2019-02-28T17:25:57.370Z,99.90
2019-02-28T17:28:36.620Z,99.90
2019-02-28T17:31:08.384Z,99.90
2019-02-28T17:33:37.578Z,99.90
2019-02-28T17:36:08.394Z,99.90
2019-02-28T17:38:37.991Z,99.90
2019-02-28T17:41:06.804Z,99.90
2019-02-28T17:43:39.000Z,99.90
2019-02-28T17:46:10.746Z,99.90
2019-02-28T17:48:45.313Z,99.90
2019-02-28T17:51:22.401Z,99.90
2019-02-28T17:54:00.164Z,99.90
2019-02-28T17:56:37.568Z,99.90
2019-02-28T17:59:26.525Z,99.90
2019-02-28T18:02:06.356Z,99.90
2019-02-28T18:04:40.887Z,99.90
2019-02-28T18:07:23.312Z,99.90
2019-02-28T18:09:54.937Z,99.90
2019-02-28T18:12:35.520Z,99.90
2019-02-28T18:15:08.855Z,99.90
2019-02-28T18:17:52.605Z,99.90
2019-02-28T18:20:39.134Z,99.90
2019-02-28T18:23:21.270Z,99.90
2019-02-28T18:26:05.062Z,99.90
2019-02-28T18:28:58.103Z,99.90
2019-02-28T18:31:26.936Z,99.90
2019-02-28T18:33:57.801Z,99.90
2019-02-28T18:36:28.794Z,99.90
2019-02-28T18:38:57.528Z,99.90
2019-02-28T18:41:26.354Z,99.90
2019-02-28T18:43:55.040Z,99.90
2019-02-28T18:46:23.784Z,99.90
2019-02-28T18:48:54.331Z,99.90
2019-02-28T18:51:23.000Z,99.90
2019-02-28T18:53:51.688Z,99.90
2019-02-28T18:56:20.455Z,99.90
2019-02-28T18:58:49.344Z,99.90
2019-02-28T19:01:18.071Z,99.90
2019-02-28T19:03:46.788Z,99.90
2019-02-28T19:06:15.439Z,99.90
2019-02-28T19:08:44.151Z,99.90
2019-02-28T19:11:12.838Z,99.90
2019-02-28T19:13:41.552Z,99.90
2019-02-28T19:16:10.211Z,99.90
2019-02-28T19:18:38.914Z,99.90
2019-02-28T19:21:07.638Z,99.90
2019-02-28T19:23:36.309Z,99.90
2019-02-28T19:26:05.034Z,99.90
2019-02-28T19:28:33.701Z,99.90
2019-02-28T19:31:02.463Z,99.90
2019-02-28T19:33:31.182Z,99.90
2019-02-28T19:35:59.894Z,99.90
2019-02-28T19:38:28.570Z,99.90
2019-02-28T19:40:57.324Z,99.90
2019-02-28T19:43:25.945Z,99.90
2019-02-28T19:45:56.263Z,99.90
2019-02-28T19:48:24.913Z,99.90
2019-02-28T19:50:53.582Z,99.90
2019-02-28T19:53:22.199Z,99.90
2019-02-28T19:55:50.876Z,99.90
2019-02-28T19:58:19.608Z,99.90
2019-02-28T20:00:48.416Z,99.90
2019-02-28T20:03:17.070Z,99.90
2019-02-28T20:05:45.761Z,99.90
2019-02-28T20:08:14.370Z,99.90
2019-02-28T20:10:43.186Z,99.90
2019-02-28T20:13:11.939Z,99.90
2019-02-28T20:15:41.837Z,99.90
2019-02-28T20:18:10.715Z,99.90
2019-02-28T20:20:39.430Z,99.90
2019-02-28T20:23:08.116Z,99.90
2019-02-28T20:25:36.920Z,99.90
2019-02-28T20:28:05.651Z,99.90
2019-02-28T20:30:34.490Z,99.90
2019-02-28T20:33:03.262Z,99.90
2019-02-28T20:35:32.087Z,99.90
2019-02-28T20:38:00.936Z,99.90
2019-02-28T20:40:32.170Z,99.90
2019-02-28T20:43:00.843Z,99.90
2019-02-28T20:45:29.568Z,99.90
2019-02-28T20:47:58.367Z,99.90
2019-02-28T20:50:51.401Z,99.90
2019-02-28T20:53:20.043Z,99.90
2019-02-28T20:55:48.785Z,99.90
2019-02-28T20:58:17.481Z,99.90
2019-02-28T21:00:46.196Z,99.90
2019-02-28T21:03:14.880Z,99.90
2019-02-28T21:05:43.678Z,99.90
2019-02-28T21:08:12.403Z,99.90
2019-02-28T21:10:41.011Z,99.90
2019-02-28T21:13:09.790Z,99.90
2019-02-28T21:15:38.479Z,99.90
2019-02-28T21:18:07.219Z,99.90
2019-02-28T21:20:35.872Z,99.90
2019-02-28T21:23:04.708Z,99.90
2019-02-28T21:25:33.338Z,99.90
2019-02-28T21:28:01.994Z,99.90
2019-02-28T21:30:30.765Z,99.90
2019-02-28T21:32:59.460Z,99.90
2019-02-28T21:35:28.248Z,99.90
2019-02-28T21:37:57.037Z,99.90
2019-02-28T21:40:25.883Z,99.90
2019-02-28T21:42:54.555Z,99.90
2019-02-28T21:45:27.801Z,99.90
2019-02-28T21:47:56.585Z,99.90
2019-02-28T21:50:25.240Z,99.90
2019-02-28T21:52:54.003Z,99.90
2019-02-28T21:55:22.730Z,99.90
2019-02-28T21:57:51.414Z,99.90
2019-02-28T22:00:27.448Z,99.90
2019-02-28T22:02:56.164Z,99.90
2019-02-28T22:05:24.982Z,99.90
2019-02-28T22:07:53.633Z,99.90
2019-02-28T22:10:22.482Z,99.90
2019-02-28T22:12:51.202Z,99.90
2019-02-28T22:15:21.338Z,99.90
2019-02-28T22:17:49.986Z,99.90
2019-02-28T22:20:18.737Z,99.90
2019-02-28T22:22:47.568Z,99.90
2019-02-28T22:25:16.901Z,99.90
2019-02-28T22:27:45.843Z,99.90
2019-02-28T22:30:35.218Z,99.90
2019-02-28T22:33:05.722Z,99.90
2019-02-28T22:35:36.117Z,99.90
2019-02-28T22:38:04.724Z,99.90
2019-02-28T22:40:33.426Z,99.90
2019-02-28T22:43:02.154Z,99.90
2019-02-28T22:45:30.817Z,99.90
2019-02-28T22:47:59.487Z,99.90
2019-02-28T22:50:28.282Z,99.90
2019-02-28T22:52:56.982Z,99.90
2019-02-28T22:55:25.631Z,99.90
2019-02-28T22:57:54.314Z,99.90
2019-02-28T23:00:39.811Z,99.90
2019-02-28T23:03:08.708Z,99.90
2019-02-28T23:05:37.499Z,99.90
2019-02-28T23:08:06.279Z,99.90
2019-02-28T23:10:34.969Z,99.90
2019-02-28T23:13:03.739Z,99.90
2019-02-28T23:15:32.409Z,99.90
2019-02-28T23:18:02.066Z,99.90
2019-02-28T23:20:30.781Z,99.90
2019-02-28T23:22:59.462Z,99.90
2019-02-28T23:25:28.117Z,99.90
2019-02-28T23:28:17.688Z,99.90
2019-02-28T23:31:01.782Z,99.90
2019-02-28T23:33:30.388Z,99.90
2019-02-28T23:35:59.229Z,99.90
2019-02-28T23:38:27.952Z,99.90
2019-02-28T23:40:57.303Z,99.90
2019-02-28T23:43:25.953Z,99.90
2019-02-28T23:45:54.627Z,99.90
2019-02-28T23:48:23.289Z,99.90
2019-02-28T23:50:51.951Z,99.90
2019-02-28T23:53:20.658Z,99.90
2019-02-28T23:55:49.311Z,99.90
2019-02-28T23:58:18.010Z,99.90
